createdAt,value
2019-03-23T00:00:43.572Z,8.80
2019-03-23T00:03:13.066Z,8.33
2019-03-23T00:05:42.734Z,8.43
2019-03-23T00:08:12.188Z,7.85
2019-03-23T00:10:41.774Z,8.48
2019-03-23T00:13:11.273Z,11.68
2019-03-23T00:15:40.755Z,6.65
2019-03-23T00:18:10.235Z,8.03
2019-03-23T00:20:39.741Z,10.60
2019-03-23T00:23:09.284Z,9.95
2019-03-23T00:25:38.797Z,7.17
2019-03-23T00:28:08.282Z,14.87
2019-03-23T00:30:37.802Z,9.43
2019-03-23T00:33:07.315Z,13.43
2019-03-23T00:35:36.783Z,11.45
2019-03-23T00:38:06.275Z,14.28
2019-03-23T00:40:35.766Z,15.20
2019-03-23T00:43:05.342Z,17.37
2019-03-23T00:45:34.827Z,15.13
2019-03-23T00:48:04.503Z,12.20
2019-03-23T00:50:34.097Z,14.33
2019-03-23T00:53:03.693Z,16.12
2019-03-23T00:55:33.220Z,17.25
2019-03-23T00:58:02.695Z,21.60
2019-03-23T01:00:32.366Z,18.92
2019-03-23T01:03:01.951Z,26.50
2019-03-23T01:05:31.502Z,17.82
2019-03-23T01:08:01.156Z,23.83
2019-03-23T01:10:30.655Z,21.45
2019-03-23T01:13:00.168Z,26.50
2019-03-23T01:15:29.802Z,25.68
2019-03-23T01:17:59.301Z,27.58
2019-03-23T01:20:28.828Z,26.07
2019-03-23T01:22:58.504Z,28.32
2019-03-23T01:25:28.010Z,24.98
2019-03-23T01:27:58.952Z,28.67
2019-03-23T01:30:28.530Z,24.05
2019-03-23T01:32:58.112Z,30.37
2019-03-23T01:35:30.365Z,27.82
2019-03-23T01:37:59.851Z,31.60
2019-03-23T01:40:31.019Z,33.90
2019-03-23T01:43:02.980Z,30.40
2019-03-23T01:45:31.818Z,35.00
2019-03-23T01:48:01.366Z,32.50
2019-03-23T01:50:30.873Z,31.77
2019-03-23T01:53:00.377Z,37.65
2019-03-23T01:55:30.056Z,36.95
2019-03-23T01:58:01.466Z,37.95
2019-03-23T02:00:31.108Z,44.53
2019-03-23T02:03:00.603Z,38.80
2019-03-23T02:05:30.091Z,38.58
2019-03-23T02:07:59.622Z,33.75
2019-03-23T02:10:29.169Z,45.00
2019-03-23T02:12:58.700Z,49.88
2019-03-23T02:15:28.291Z,51.95
2019-03-23T02:17:57.844Z,52.30
2019-03-23T02:20:27.368Z,74.53
2019-03-23T02:22:56.865Z,59.60
2019-03-23T02:25:26.371Z,54.70
2019-03-23T02:27:55.871Z,49.70
2019-03-23T02:30:25.486Z,60.75
2019-03-23T02:32:55.038Z,60.30
2019-03-23T02:35:24.553Z,55.05
2019-03-23T02:37:54.140Z,58.25
2019-03-23T02:40:23.641Z,60.30
2019-03-23T02:42:53.151Z,61.65
2019-03-23T02:45:22.715Z,66.40
2019-03-23T02:47:52.191Z,72.35
2019-03-23T02:50:21.692Z,78.92
2019-03-23T02:52:51.208Z,71.28
2019-03-23T02:55:20.776Z,77.97
2019-03-23T02:57:50.282Z,55.17
2019-03-23T03:00:19.843Z,63.38
2019-03-23T03:02:49.351Z,63.28
2019-03-23T03:05:18.839Z,61.05
2019-03-23T03:07:48.325Z,80.05
2019-03-23T03:10:42.438Z,67.00
2019-03-23T03:13:12.086Z,62.43
2019-03-23T03:15:41.752Z,75.87
2019-03-23T03:18:11.348Z,88.50
2019-03-23T03:20:40.967Z,70.10
2019-03-23T03:23:10.450Z,79.17
2019-03-23T03:25:40.033Z,70.90
2019-03-23T03:28:09.516Z,65.00
2019-03-23T03:30:39.015Z,65.37
2019-03-23T03:33:08.653Z,64.30
2019-03-23T03:35:38.220Z,76.80
2019-03-23T03:38:07.748Z,65.45
2019-03-23T03:40:37.608Z,85.03
2019-03-23T03:43:07.108Z,73.72
2019-03-23T03:45:38.524Z,76.05
2019-03-23T03:48:08.098Z,93.47
2019-03-23T03:50:37.589Z,91.75
2019-03-23T03:53:07.138Z,71.12
2019-03-23T03:55:36.634Z,75.80
2019-03-23T03:58:06.120Z,76.72
2019-03-23T04:00:35.714Z,75.45
2019-03-23T04:03:05.267Z,79.92
2019-03-23T04:05:34.801Z,79.80
2019-03-23T04:08:11.262Z,92.57
2019-03-23T04:10:35.747Z,99.77
2019-03-23T04:13:05.236Z,85.75
2019-03-23T04:15:34.732Z,83.52
2019-03-23T04:18:04.346Z,95.95
2019-03-23T04:20:33.817Z,89.92
2019-03-23T04:23:03.321Z,86.17
2019-03-23T04:25:32.945Z,95.35
2019-03-23T04:28:02.540Z,101.90
2019-03-23T04:30:32.127Z,101.33
2019-03-23T04:33:01.620Z,95.17
2019-03-23T04:35:31.120Z,95.45
2019-03-23T04:38:00.603Z,84.97
2019-03-23T04:40:30.109Z,89.45
2019-03-23T04:43:00.821Z,108.05
2019-03-23T04:45:30.307Z,115.50
2019-03-23T04:47:59.792Z,87.60
2019-03-23T04:50:29.365Z,109.92
2019-03-23T04:52:58.862Z,91.35
2019-03-23T04:55:28.387Z,103.35
2019-03-23T04:57:57.892Z,103.30
2019-03-23T05:00:27.644Z,89.45
2019-03-23T05:02:57.360Z,99.05
2019-03-23T05:05:26.890Z,92.25
2019-03-23T05:07:56.406Z,120.15
2019-03-23T05:10:25.908Z,113.90
2019-03-23T05:12:55.391Z,102.17
2019-03-23T05:15:24.905Z,84.13
2019-03-23T05:17:54.532Z,101.30
2019-03-23T05:20:32.235Z,100.90
2019-03-23T05:23:01.763Z,100.60
2019-03-23T05:25:31.613Z,93.78
2019-03-23T05:28:01.254Z,95.38
2019-03-23T05:30:30.736Z,75.90
2019-03-23T05:33:00.250Z,104.40
2019-03-23T05:35:29.818Z,84.32
2019-03-23T05:37:59.315Z,80.95
2019-03-23T05:40:28.898Z,96.82
2019-03-23T05:42:58.976Z,93.87
2019-03-23T05:45:28.493Z,94.52
2019-03-23T05:47:57.970Z,87.57
2019-03-23T05:50:27.526Z,98.58
2019-03-23T05:52:57.040Z,108.45
2019-03-23T05:55:26.534Z,105.72
2019-03-23T05:57:56.034Z,101.12
2019-03-23T06:00:25.548Z,105.20
2019-03-23T06:02:55.121Z,101.72
2019-03-23T06:05:24.845Z,107.47
2019-03-23T06:07:54.500Z,101.82
2019-03-23T06:10:23.997Z,92.72
2019-03-23T06:12:53.479Z,95.95
2019-03-23T06:15:23.105Z,93.35
2019-03-23T06:17:52.695Z,98.75
2019-03-23T06:20:22.182Z,106.27
2019-03-23T06:22:51.717Z,87.45
2019-03-23T06:25:21.267Z,97.08
2019-03-23T06:27:50.783Z,96.15
2019-03-23T06:30:20.361Z,95.90
2019-03-23T06:32:49.915Z,107.43
2019-03-23T06:35:19.428Z,116.40
2019-03-23T06:37:48.939Z,99.17
2019-03-23T06:40:18.519Z,107.00
2019-03-23T06:42:59.383Z,94.70
2019-03-23T06:45:22.097Z,103.12
2019-03-23T06:47:51.612Z,95.85
2019-03-23T06:50:21.095Z,83.35
2019-03-23T06:52:50.612Z,107.58
2019-03-23T06:55:20.101Z,96.90
2019-03-23T06:57:49.652Z,107.35
2019-03-23T07:00:19.344Z,118.25
2019-03-23T07:02:48.852Z,89.03
2019-03-23T07:05:18.358Z,102.92
2019-03-23T07:07:47.907Z,92.92
2019-03-23T07:10:17.700Z,104.97
2019-03-23T07:12:47.225Z,105.67
2019-03-23T07:15:20.240Z,96.72
2019-03-23T07:17:48.239Z,101.27
2019-03-23T07:20:17.874Z,122.85
2019-03-23T07:22:47.423Z,107.75
2019-03-23T07:25:17.033Z,82.42
2019-03-23T07:27:46.533Z,109.37
2019-03-23T07:30:18.988Z,112.65
2019-03-23T07:32:48.610Z,123.02
2019-03-23T07:35:18.276Z,109.48
2019-03-23T07:37:47.780Z,112.57
2019-03-23T07:40:17.970Z,106.32
2019-03-23T07:42:47.541Z,100.07
2019-03-23T07:45:17.487Z,121.75
2019-03-23T07:47:47.209Z,86.78
2019-03-23T07:50:16.928Z,102.10
2019-03-23T07:52:46.610Z,98.92
2019-03-23T07:55:18.924Z,100.38
2019-03-23T07:57:48.528Z,91.25
2019-03-23T08:00:22.808Z,99.32
2019-03-23T08:02:52.329Z,95.07
2019-03-23T08:05:21.848Z,97.97
2019-03-23T08:07:51.499Z,95.05
2019-03-23T08:10:34.508Z,75.80
2019-03-23T08:13:04.086Z,91.32
2019-03-23T08:15:33.769Z,92.22
2019-03-23T08:18:03.333Z,90.40
2019-03-23T08:20:32.942Z,90.28
2019-03-23T08:23:02.427Z,96.28
2019-03-23T08:25:31.997Z,94.20
2019-03-23T08:28:01.486Z,89.52
2019-03-23T08:30:31.049Z,69.72
2019-03-23T08:33:00.565Z,71.40
2019-03-23T08:35:30.056Z,78.87
2019-03-23T08:38:00.522Z,74.62
2019-03-23T08:40:30.056Z,68.80
2019-03-23T08:42:59.604Z,73.10
2019-03-23T08:45:29.121Z,66.57
2019-03-23T08:47:58.635Z,78.30
2019-03-23T08:50:28.234Z,73.20
2019-03-23T08:52:57.738Z,62.38
2019-03-23T08:55:27.245Z,58.63
2019-03-23T08:57:56.839Z,56.90
2019-03-23T09:00:26.577Z,58.83
2019-03-23T09:02:56.167Z,49.50
2019-03-23T09:05:25.680Z,47.90
2019-03-23T09:07:55.198Z,60.93
2019-03-23T09:10:24.684Z,54.63
2019-03-23T09:12:54.198Z,53.83
2019-03-23T09:15:23.833Z,44.33
2019-03-23T09:17:53.337Z,47.70
2019-03-23T09:20:22.855Z,48.03
2019-03-23T09:22:52.382Z,56.23
2019-03-23T09:25:21.929Z,50.50
2019-03-23T09:27:51.449Z,40.33
2019-03-23T09:30:21.026Z,59.30
2019-03-23T09:32:50.601Z,52.50
2019-03-23T09:35:20.165Z,48.67
2019-03-23T09:37:49.781Z,52.67
2019-03-23T09:40:19.382Z,43.17
2019-03-23T09:42:48.926Z,45.60
2019-03-23T09:45:18.502Z,50.93
2019-03-23T09:47:48.040Z,52.50
2019-03-23T09:50:17.681Z,49.70
2019-03-23T09:52:47.218Z,56.30
2019-03-23T09:55:16.743Z,51.80
2019-03-23T09:57:46.301Z,40.87
2019-03-23T10:00:15.954Z,45.27
2019-03-23T10:02:45.467Z,42.63
2019-03-23T10:05:14.985Z,42.87
2019-03-23T10:07:44.484Z,49.60
2019-03-23T10:10:21.851Z,45.00
2019-03-23T10:12:45.410Z,48.47
2019-03-23T10:15:14.893Z,44.80
2019-03-23T10:17:44.435Z,49.10
2019-03-23T10:20:14.024Z,48.43
2019-03-23T10:22:43.612Z,45.67
2019-03-23T10:25:13.144Z,46.47
2019-03-23T10:27:42.636Z,59.57
2019-03-23T10:30:13.069Z,53.43
2019-03-23T10:32:42.589Z,49.10
2019-03-23T10:35:12.433Z,50.97
2019-03-23T10:37:41.975Z,51.60
2019-03-23T10:40:13.507Z,46.70
2019-03-23T10:42:43.496Z,54.93
2019-03-23T10:45:13.559Z,53.10
2019-03-23T10:47:43.349Z,56.57
2019-03-23T10:50:13.091Z,52.60
2019-03-23T10:52:42.661Z,48.00
2019-03-23T10:55:12.349Z,50.87
2019-03-23T10:57:41.881Z,49.43
2019-03-23T11:00:16.049Z,58.20
2019-03-23T11:02:45.622Z,49.77
2019-03-23T11:05:15.319Z,55.77
2019-03-23T11:07:44.848Z,52.53
2019-03-23T11:10:14.966Z,55.97
2019-03-23T11:12:44.582Z,45.43
2019-03-23T11:15:14.247Z,55.63
2019-03-23T11:17:44.332Z,51.37
2019-03-23T11:20:14.478Z,51.77
2019-03-23T11:22:44.005Z,53.83
2019-03-23T11:25:13.825Z,50.57
2019-03-23T11:27:43.315Z,53.10
2019-03-23T11:30:15.048Z,42.80
2019-03-23T11:32:44.748Z,46.80
2019-03-23T11:35:14.701Z,52.70
2019-03-23T11:37:44.583Z,45.43
2019-03-23T11:40:14.399Z,51.20
2019-03-23T11:42:49.723Z,44.00
2019-03-23T11:45:15.355Z,58.07
2019-03-23T11:47:44.876Z,48.87
2019-03-23T11:50:14.620Z,55.80
2019-03-23T11:52:44.125Z,56.13
2019-03-23T11:55:13.764Z,48.10
2019-03-23T11:57:43.309Z,55.33
2019-03-23T12:00:16.495Z,51.50
2019-03-23T12:02:46.102Z,56.20
2019-03-23T12:05:15.968Z,53.63
2019-03-23T12:07:45.471Z,51.73
2019-03-23T12:10:15.388Z,56.70
2019-03-23T12:12:44.918Z,55.80
2019-03-23T12:15:15.068Z,49.13
2019-03-23T12:17:44.565Z,53.67
2019-03-23T12:20:14.520Z,53.20
2019-03-23T12:22:44.186Z,48.07
2019-03-23T12:27:55.818Z,49.90
2019-03-23T12:30:25.342Z,51.50
2019-03-23T12:32:56.425Z,55.67
2019-03-23T12:35:25.959Z,54.27
2019-03-23T12:37:55.625Z,54.30
2019-03-23T12:40:25.087Z,58.17
2019-03-23T12:42:54.612Z,45.33
2019-03-23T12:45:24.102Z,51.03
2019-03-23T12:47:53.639Z,38.97
2019-03-23T12:50:23.132Z,50.33
2019-03-23T12:52:52.642Z,44.73
2019-03-23T12:55:22.248Z,49.20
2019-03-23T12:57:51.755Z,43.83
2019-03-23T13:00:21.425Z,44.73
2019-03-23T13:02:50.926Z,45.73
2019-03-23T13:05:20.506Z,44.90
2019-03-23T13:07:50.015Z,44.47
2019-03-23T13:10:19.711Z,38.97
2019-03-23T13:12:49.176Z,45.80
2019-03-23T13:15:18.841Z,44.13
2019-03-23T13:17:48.334Z,41.70
2019-03-23T13:20:18.063Z,51.87
2019-03-23T13:22:47.587Z,43.50
2019-03-23T13:25:17.163Z,45.27
2019-03-23T13:27:46.659Z,44.80
2019-03-23T13:30:19.481Z,43.70
2019-03-23T13:32:49.001Z,47.30
2019-03-23T13:35:18.517Z,39.17
2019-03-23T13:37:48.103Z,45.27
2019-03-23T13:40:17.670Z,41.40
2019-03-23T13:42:47.228Z,36.00
2019-03-23T13:45:17.065Z,47.93
2019-03-23T13:47:46.561Z,36.17
2019-03-23T13:50:23.321Z,42.40
2019-03-23T13:52:52.824Z,41.17
2019-03-23T13:55:34.168Z,36.50
2019-03-23T13:58:13.798Z,39.77
2019-03-23T14:00:43.722Z,44.17
2019-03-23T14:03:13.538Z,43.73
2019-03-23T14:05:43.096Z,43.33
2019-03-23T14:08:12.778Z,37.30
2019-03-23T14:10:42.313Z,39.87
2019-03-23T14:13:11.895Z,46.40
2019-03-23T14:15:41.476Z,39.90
2019-03-23T14:18:11.003Z,39.70
2019-03-23T14:20:40.637Z,42.90
2019-03-23T14:23:10.149Z,39.57
2019-03-23T14:25:39.685Z,37.60
2019-03-23T14:28:09.166Z,34.73
2019-03-23T14:30:38.680Z,34.30
2019-03-23T14:33:08.349Z,42.60
2019-03-23T14:35:37.843Z,43.50
2019-03-23T14:38:07.367Z,41.73
2019-03-23T14:40:36.940Z,39.80
2019-03-23T14:43:06.510Z,40.53
2019-03-23T14:45:36.989Z,36.97
2019-03-23T14:48:06.614Z,34.50
2019-03-23T14:50:36.106Z,43.17
2019-03-23T14:53:05.803Z,40.53
2019-03-23T14:55:37.377Z,39.90
2019-03-23T14:58:06.795Z,45.70
2019-03-23T15:00:36.645Z,35.67
2019-03-23T15:03:06.141Z,38.70
2019-03-23T15:05:35.722Z,42.90
2019-03-23T15:08:05.357Z,39.10
2019-03-23T15:10:34.863Z,41.90
2019-03-23T15:13:04.371Z,42.30
2019-03-23T15:15:33.912Z,37.27
2019-03-23T15:18:03.488Z,40.17
2019-03-23T15:20:33.068Z,48.13
2019-03-23T15:23:02.603Z,45.90
2019-03-23T15:25:32.184Z,39.23
2019-03-23T15:28:01.739Z,39.40
2019-03-23T15:30:31.229Z,37.97
2019-03-23T15:33:00.824Z,42.20
2019-03-23T15:35:30.379Z,38.53
2019-03-23T15:37:59.881Z,37.17
2019-03-23T15:40:29.400Z,39.73
2019-03-23T15:42:59.029Z,47.43
2019-03-23T15:45:28.557Z,38.40
2019-03-23T15:47:58.082Z,44.60
2019-03-23T15:50:27.603Z,38.97
2019-03-23T15:52:57.200Z,39.83
2019-03-23T15:55:26.776Z,41.53
2019-03-23T15:57:56.474Z,42.10
2019-03-23T16:00:26.059Z,43.17
2019-03-23T16:02:55.567Z,43.60
2019-03-23T16:05:25.190Z,46.27
2019-03-23T16:07:54.724Z,44.00
2019-03-23T16:10:24.321Z,42.80
2019-03-23T16:12:53.932Z,43.83
2019-03-23T16:15:23.489Z,42.37
2019-03-23T16:17:53.010Z,39.40
2019-03-23T16:20:22.802Z,45.63
2019-03-23T16:22:52.361Z,43.80
2019-03-23T16:25:23.428Z,45.50
2019-03-23T16:27:52.989Z,36.43
2019-03-23T16:30:29.301Z,45.50
2019-03-23T16:32:59.545Z,41.63
2019-03-23T16:35:29.205Z,38.40
2019-03-23T16:37:58.743Z,49.30
2019-03-23T16:40:47.666Z,48.73
2019-03-23T16:43:17.172Z,37.43
2019-03-23T16:45:46.758Z,43.10
2019-03-23T16:48:16.291Z,49.13
2019-03-23T16:50:45.801Z,39.20
2019-03-23T16:53:15.296Z,42.40
2019-03-23T16:55:44.914Z,47.97
2019-03-23T16:58:16.308Z,43.63
2019-03-23T17:00:46.706Z,44.77
2019-03-23T17:03:16.201Z,47.33
2019-03-23T17:05:45.741Z,48.53
2019-03-23T17:08:15.235Z,42.00
2019-03-23T17:10:44.945Z,52.53
2019-03-23T17:13:14.509Z,47.03
2019-03-23T17:15:44.103Z,42.87
2019-03-23T17:18:13.636Z,44.90
2019-03-23T17:20:43.183Z,39.30
2019-03-23T17:23:12.716Z,41.90
2019-03-23T17:25:42.227Z,50.00
2019-03-23T17:28:11.761Z,51.40
2019-03-23T17:30:41.304Z,48.67
2019-03-23T17:33:10.822Z,42.70
2019-03-23T17:35:40.311Z,45.97
2019-03-23T17:38:09.918Z,48.60
2019-03-23T17:40:39.416Z,40.43
2019-03-23T17:43:08.949Z,48.03
2019-03-23T17:45:38.612Z,42.53
2019-03-23T17:48:08.220Z,36.27
2019-03-23T17:50:37.861Z,44.63
2019-03-23T17:53:07.378Z,42.90
2019-03-23T17:55:37.035Z,45.60
2019-03-23T17:58:06.778Z,49.37
2019-03-23T18:00:36.429Z,50.10
2019-03-23T18:03:06.075Z,47.10
2019-03-23T18:05:35.686Z,48.80
2019-03-23T18:08:05.279Z,49.07
2019-03-23T18:10:34.776Z,45.90
2019-03-23T18:13:04.499Z,46.10
2019-03-23T18:15:34.048Z,41.80
2019-03-23T18:18:03.690Z,47.33
2019-03-23T18:20:33.277Z,43.67
2019-03-23T18:23:02.844Z,44.37
2019-03-23T18:25:32.469Z,47.67
2019-03-23T18:28:02.028Z,48.17
2019-03-23T18:30:43.728Z,42.13
2019-03-23T18:33:13.605Z,42.33
2019-03-23T18:35:43.343Z,44.37
2019-03-23T18:38:12.990Z,47.80
2019-03-23T18:40:42.755Z,45.60
2019-03-23T18:43:12.302Z,67.27
2019-03-23T18:45:41.857Z,61.90
2019-03-23T18:48:11.463Z,57.67
2019-03-23T18:50:42.771Z,57.30
2019-03-23T18:53:12.578Z,49.40
2019-03-23T18:55:42.108Z,50.20
2019-03-23T18:58:11.658Z,57.80
2019-03-23T19:00:42.918Z,55.60
2019-03-23T19:03:12.924Z,42.80
2019-03-23T19:05:42.646Z,50.47
2019-03-23T19:08:12.299Z,49.40
2019-03-23T19:10:42.125Z,47.33
2019-03-23T19:13:11.820Z,55.60
2019-03-23T19:15:41.519Z,46.20
2019-03-23T19:18:11.191Z,45.10
2019-03-23T19:20:40.788Z,45.00
2019-03-23T19:23:10.300Z,51.40
2019-03-23T19:25:39.809Z,44.90
2019-03-23T19:28:09.367Z,46.33
2019-03-23T19:30:38.995Z,43.03
2019-03-23T19:33:08.518Z,49.83
2019-03-23T19:35:38.117Z,47.07
2019-03-23T19:38:07.835Z,45.73
2019-03-23T19:40:37.332Z,45.10
2019-03-23T19:43:06.956Z,48.80
2019-03-23T19:45:36.563Z,52.77
2019-03-23T19:48:06.192Z,43.90
2019-03-23T19:50:35.754Z,46.57
2019-03-23T19:53:05.413Z,45.87
2019-03-23T19:55:34.979Z,44.77
2019-03-23T19:58:04.694Z,53.10
2019-03-23T20:00:36.376Z,45.90
2019-03-23T20:03:05.994Z,48.63
2019-03-23T20:05:35.682Z,52.30
2019-03-23T20:08:05.247Z,47.87
2019-03-23T20:10:34.855Z,47.13
2019-03-23T20:13:04.621Z,47.23
2019-03-23T20:15:34.315Z,52.57
2019-03-23T20:18:03.886Z,47.73
2019-03-23T20:20:33.628Z,46.20
2019-03-23T20:23:03.261Z,45.53
2019-03-23T20:25:32.801Z,46.20
2019-03-23T20:28:02.377Z,47.07
2019-03-23T20:30:31.885Z,43.80
2019-03-23T20:33:01.423Z,51.17
2019-03-23T20:35:31.044Z,48.33
2019-03-23T20:38:00.517Z,41.83
2019-03-23T20:40:30.051Z,53.77
2019-03-23T20:43:00.317Z,46.90
2019-03-23T20:45:30.927Z,48.07
2019-03-23T20:48:00.599Z,46.97
2019-03-23T20:50:30.282Z,51.20
2019-03-23T20:53:00.345Z,48.70
2019-03-23T20:55:32.727Z,51.70
2019-03-23T20:58:02.346Z,48.03
2019-03-23T21:00:31.868Z,41.37
2019-03-23T21:03:01.481Z,51.27
2019-03-23T21:05:34.066Z,47.43
2019-03-23T21:08:02.342Z,45.53
2019-03-23T21:10:31.883Z,45.03
2019-03-23T21:13:01.530Z,49.97
2019-03-23T21:15:31.161Z,50.53
2019-03-23T21:18:00.683Z,49.23
2019-03-23T21:20:30.233Z,56.23
2019-03-23T21:22:59.800Z,45.07
2019-03-23T21:25:31.963Z,42.53
2019-03-23T21:28:01.540Z,50.03
2019-03-23T21:30:31.119Z,45.50
2019-03-23T21:33:00.699Z,42.17
2019-03-23T21:35:30.296Z,49.90
2019-03-23T21:37:59.814Z,38.07
2019-03-23T21:40:29.426Z,44.03
2019-03-23T21:42:58.964Z,53.83
2019-03-23T21:45:28.544Z,45.27
2019-03-23T21:47:58.060Z,48.20
2019-03-23T21:50:27.572Z,49.77
2019-03-23T21:52:57.102Z,57.10
2019-03-23T21:55:26.610Z,52.80
2019-03-23T21:57:56.117Z,46.90
2019-03-23T22:00:35.545Z,46.43
2019-03-23T22:03:05.289Z,49.60
2019-03-23T22:05:34.814Z,38.60
2019-03-23T22:08:04.628Z,47.23
2019-03-23T22:10:34.336Z,42.37
2019-03-23T22:13:03.941Z,46.77
2019-03-23T22:15:34.132Z,43.63
2019-03-23T22:18:03.823Z,43.30
2019-03-23T22:20:33.486Z,50.53
2019-03-23T22:23:02.995Z,56.90
2019-03-23T22:25:32.587Z,47.90
2019-03-23T22:28:02.155Z,45.87
2019-03-23T22:30:31.832Z,43.57
2019-03-23T22:33:01.458Z,48.60
2019-03-23T22:35:31.063Z,51.60
2019-03-23T22:38:00.634Z,50.37
2019-03-23T22:40:33.332Z,47.80
2019-03-23T22:43:02.870Z,47.03
2019-03-23T22:45:32.381Z,45.20
2019-03-23T22:48:01.939Z,48.10
2019-03-23T22:50:31.521Z,51.90
2019-03-23T22:53:01.275Z,51.30
2019-03-23T22:55:30.814Z,50.20
2019-03-23T22:58:00.299Z,52.60
2019-03-23T23:00:34.068Z,58.23
2019-03-23T23:03:03.937Z,46.53
2019-03-23T23:05:33.457Z,39.87
2019-03-23T23:08:02.965Z,40.53
2019-03-23T23:10:32.493Z,45.30
2019-03-23T23:13:02.047Z,48.33
2019-03-23T23:15:31.583Z,38.03
2019-03-23T23:18:02.085Z,36.37
2019-03-23T23:20:31.611Z,37.47
2019-03-23T23:23:01.129Z,35.63
2019-03-23T23:25:30.629Z,36.23
2019-03-23T23:28:00.162Z,33.40
2019-03-23T23:30:31.278Z,29.50
2019-03-23T23:33:00.779Z,31.00
2019-03-23T23:35:30.400Z,32.43
2019-03-23T23:37:59.969Z,31.93
2019-03-23T23:40:29.503Z,34.93
2019-03-23T23:42:59.086Z,35.77
2019-03-23T23:45:28.596Z,34.13
2019-03-23T23:47:58.094Z,32.63
2019-03-23T23:50:27.591Z,36.00
2019-03-23T23:52:57.127Z,36.28
2019-03-23T23:55:31.522Z,35.20
2019-03-23T23:58:04.485Z,27.13
